createdAt,value
2023-09-23T00:01:46.574Z,100790.97
2023-09-23T00:04:15.193Z,100801.78
2023-09-23T00:06:43.980Z,100813.41
2023-09-23T00:09:16.356Z,100815.59
2023-09-23T00:11:45.048Z,100805.44
2023-09-23T00:14:13.837Z,100797.94
2023-09-23T00:16:46.478Z,100810.81
2023-09-23T00:19:16.637Z,100825.16
2023-09-23T00:21:46.780Z,100829.59
2023-09-23T00:24:15.333Z,100818.22
2023-09-23T00:26:45.152Z,100820.88
2023-09-23T00:29:14.165Z,100823.56
2023-09-23T00:31:45.010Z,100822.72
2023-09-23T00:34:13.898Z,100834.75
2023-09-23T00:36:43.262Z,100838.94
2023-09-23T00:39:11.866Z,100837.94
2023-09-23T00:41:42.867Z,100845.72
2023-09-23T00:44:11.805Z,100842.06
2023-09-23T00:46:41.392Z,100858.00
2023-09-23T00:49:12.621Z,100850.22
2023-09-23T00:51:43.128Z,100859.69
2023-09-23T00:54:15.540Z,100858.09
2023-09-23T00:56:44.248Z,100860.63
2023-09-23T00:59:18.529Z,100860.91
2023-09-23T01:01:54.693Z,100857.25
2023-09-23T01:04:25.793Z,100849.38
2023-09-23T01:06:55.325Z,100857.44
2023-09-23T01:09:24.978Z,100860.22
2023-09-23T01:11:56.146Z,100850.66
2023-09-23T01:14:25.051Z,100859.31
2023-09-23T01:16:54.524Z,100856.69
2023-09-23T01:19:27.854Z,100856.97
2023-09-23T01:21:57.132Z,100860.44
2023-09-23T01:24:31.715Z,100859.50
2023-09-23T01:27:00.484Z,100857.53
2023-09-23T01:29:29.277Z,100856.88
2023-09-23T01:32:13.209Z,100856.19
2023-09-23T01:34:41.707Z,100863.22
2023-09-23T01:37:10.978Z,100859.88
2023-09-23T01:39:42.508Z,100851.97
2023-09-23T01:42:12.983Z,100864.19
2023-09-23T01:44:42.544Z,100860.16
2023-09-23T01:47:11.462Z,100863.81
2023-09-23T01:49:40.775Z,100870.75
2023-09-23T01:52:09.201Z,100868.03
2023-09-23T01:54:38.384Z,100873.63
2023-09-23T01:57:08.377Z,100872.78
2023-09-23T01:59:36.963Z,100873.91
2023-09-23T02:02:06.364Z,100874.47
2023-09-23T02:04:37.286Z,100870.53
2023-09-23T02:07:06.038Z,100868.59
2023-09-23T02:09:35.885Z,100868.47
2023-09-23T02:12:04.966Z,100875.34
2023-09-23T02:14:34.938Z,100876.00
2023-09-23T02:17:03.900Z,100869.22
2023-09-23T02:19:32.497Z,100867.38
2023-09-23T02:22:06.959Z,100868.47
2023-09-23T02:24:38.120Z,100869.44
2023-09-23T02:27:07.059Z,100877.22
2023-09-23T02:29:37.973Z,100873.75
2023-09-23T02:32:07.932Z,100878.16
2023-09-23T02:34:38.286Z,100877.38
2023-09-23T02:37:07.201Z,100878.16
2023-09-23T02:39:35.820Z,100881.78
2023-09-23T02:42:07.803Z,100880.78
2023-09-23T02:44:37.879Z,100886.03
2023-09-23T02:47:06.916Z,100883.22
2023-09-23T02:49:38.388Z,100883.50
2023-09-23T02:52:08.018Z,100877.59
2023-09-23T02:54:36.399Z,100884.50
2023-09-23T02:57:09.711Z,100881.72
2023-09-23T02:59:43.339Z,100880.94
2023-09-23T03:02:21.750Z,100878.25
2023-09-23T03:04:59.360Z,100874.84
2023-09-23T03:07:36.141Z,100876.47
2023-09-23T03:10:10.657Z,100868.59
2023-09-23T03:12:44.286Z,100873.00
2023-09-23T03:15:18.012Z,100873.34
2023-09-23T03:17:52.271Z,100878.03
2023-09-23T03:20:24.730Z,100876.34
2023-09-23T03:22:55.401Z,100878.38
2023-09-23T03:25:25.360Z,100879.34
2023-09-23T03:27:54.974Z,100870.56
2023-09-23T03:30:25.511Z,100876.50
2023-09-23T03:32:55.266Z,100874.56
2023-09-23T03:35:26.367Z,100886.84
2023-09-23T03:37:55.364Z,100879.69
2023-09-23T03:40:26.707Z,100877.06
2023-09-23T03:42:55.470Z,100882.25
2023-09-23T03:45:26.656Z,100879.53
2023-09-23T03:47:55.654Z,100883.56
2023-09-23T03:50:24.655Z,100878.31
2023-09-23T03:52:53.323Z,100865.56
2023-09-23T03:55:21.919Z,100875.97
2023-09-23T03:57:50.353Z,100871.47
2023-09-23T04:00:19.166Z,100880.94
2023-09-23T04:02:49.748Z,100874.75
2023-09-23T04:05:21.170Z,100871.47
2023-09-23T04:07:51.313Z,100866.78
2023-09-23T04:10:20.843Z,100858.38
2023-09-23T04:12:49.397Z,100868.63
2023-09-23T04:15:19.717Z,100865.44
2023-09-23T04:17:50.674Z,100869.09
2023-09-23T04:20:19.659Z,100870.19
2023-09-23T04:22:50.115Z,100874.19
2023-09-23T04:25:22.147Z,100876.72
2023-09-23T04:27:50.980Z,100884.50
2023-09-23T04:30:19.898Z,100885.44
2023-09-23T04:32:50.421Z,100894.44
2023-09-23T04:35:18.984Z,100891.81
2023-09-23T04:37:47.527Z,100893.16
2023-09-23T04:40:16.513Z,100893.91
2023-09-23T04:42:49.759Z,100890.69
2023-09-23T04:45:19.423Z,100885.59
2023-09-23T04:47:52.000Z,100884.66
2023-09-23T04:50:24.811Z,100886.25
2023-09-23T04:52:55.297Z,100883.16
2023-09-23T04:55:23.896Z,100889.38
2023-09-23T04:58:01.415Z,100890.03
2023-09-23T05:00:33.992Z,100893.19
2023-09-23T05:03:03.964Z,100899.03
2023-09-23T05:05:32.947Z,100893.34
2023-09-23T05:08:01.634Z,100895.38
2023-09-23T05:10:30.936Z,100892.56
2023-09-23T05:13:00.672Z,100890.50
2023-09-23T05:15:30.613Z,100895.22
2023-09-23T05:17:59.373Z,100891.59
2023-09-23T05:20:30.265Z,100888.84
2023-09-23T05:23:01.688Z,100899.28
2023-09-23T05:25:30.435Z,100899.84
2023-09-23T05:27:59.196Z,100898.81
2023-09-23T05:30:28.913Z,100903.44
2023-09-23T05:32:57.425Z,100907.75
2023-09-23T05:35:26.447Z,100913.00
2023-09-23T05:37:56.512Z,100914.22
2023-09-23T05:40:28.794Z,100911.75
2023-09-23T05:42:57.986Z,100908.47
2023-09-23T05:45:27.132Z,100918.22
2023-09-23T05:47:56.248Z,100915.41
2023-09-23T05:50:24.979Z,100916.63
2023-09-23T05:52:54.863Z,100917.13
2023-09-23T05:55:25.793Z,100908.13
2023-09-23T05:57:56.085Z,100912.06
2023-09-23T06:00:24.596Z,100919.75
2023-09-23T06:02:53.045Z,100917.97
2023-09-23T06:05:23.271Z,100919.00
2023-09-23T06:07:52.350Z,100926.13
2023-09-23T06:10:20.784Z,100936.28
2023-09-23T06:12:50.700Z,100936.94
2023-09-23T06:15:19.672Z,100934.41
2023-09-23T06:17:48.365Z,100938.16
2023-09-23T06:20:17.170Z,100947.63
2023-09-23T06:22:45.902Z,100946.63
2023-09-23T06:25:14.404Z,100941.16
2023-09-23T06:27:44.224Z,100947.09
2023-09-23T06:30:16.927Z,100947.56
2023-09-23T06:32:46.173Z,100937.44
2023-09-23T06:35:15.773Z,100931.72
2023-09-23T06:37:45.660Z,100934.06
2023-09-23T06:40:14.293Z,100949.16
2023-09-23T06:42:43.038Z,100941.13
2023-09-23T06:45:12.283Z,100944.88
2023-09-23T06:47:42.298Z,100949.78
2023-09-23T06:50:11.834Z,100948.25
2023-09-23T06:52:42.390Z,100955.03
2023-09-23T06:55:11.713Z,100944.50
2023-09-23T06:57:40.354Z,100937.34
2023-09-23T07:00:09.571Z,100945.91
2023-09-23T07:02:38.143Z,100958.78
2023-09-23T07:05:09.832Z,100949.66
2023-09-23T07:07:39.503Z,100953.63
2023-09-23T07:10:10.404Z,100961.84
2023-09-23T07:12:38.805Z,100963.19
2023-09-23T07:15:08.235Z,100965.53
2023-09-23T07:17:37.519Z,100958.19
2023-09-23T07:20:08.989Z,100944.28
2023-09-23T07:22:37.680Z,100951.34
2023-09-23T07:25:07.090Z,100956.06
2023-09-23T07:27:35.581Z,100950.56
2023-09-23T07:30:05.122Z,100957.88
2023-09-23T07:32:33.908Z,100951.38
2023-09-23T07:35:05.180Z,100952.69
2023-09-23T07:37:35.471Z,100942.69
2023-09-23T07:40:05.118Z,100942.59
2023-09-23T07:42:33.552Z,100947.56
2023-09-23T07:45:02.119Z,100944.72
2023-09-23T07:47:30.559Z,100950.66
2023-09-23T07:50:00.507Z,100952.16
2023-09-23T07:52:29.006Z,100965.56
2023-09-23T07:54:59.254Z,100952.28
2023-09-23T07:57:27.674Z,100958.00
2023-09-23T08:00:05.147Z,100958.97
2023-09-23T08:02:37.103Z,100965.31
2023-09-23T08:05:08.683Z,100963.34
2023-09-23T08:07:38.293Z,100970.31
2023-09-23T08:10:16.638Z,100972.75
2023-09-23T08:12:46.756Z,100970.34
2023-09-23T08:15:15.971Z,100961.16
2023-09-23T08:17:44.668Z,100964.38
2023-09-23T08:20:19.640Z,100963.75
2023-09-23T08:22:48.437Z,100962.94
2023-09-23T08:25:19.602Z,100950.53
2023-09-23T08:27:48.703Z,100947.97
2023-09-23T08:30:18.850Z,100948.88
2023-09-23T08:32:47.717Z,100948.16
2023-09-23T08:35:16.437Z,100943.34
2023-09-23T08:37:47.442Z,100946.94
2023-09-23T08:40:21.003Z,100930.38
2023-09-23T08:42:55.121Z,100931.59
2023-09-23T08:45:28.744Z,100914.88
2023-09-23T08:47:59.818Z,100915.97
2023-09-23T08:50:29.547Z,100913.06
2023-09-23T08:53:00.758Z,100917.16
2023-09-23T08:55:31.771Z,100907.28
2023-09-23T08:58:03.754Z,100899.91
2023-09-23T09:00:33.046Z,100905.09
2023-09-23T09:03:01.502Z,100906.81
2023-09-23T09:05:41.834Z,100903.41
2023-09-23T09:08:10.729Z,100907.25
2023-09-23T09:10:41.751Z,100913.97
2023-09-23T09:13:10.410Z,100912.91
2023-09-23T09:15:40.145Z,100910.56
2023-09-23T09:18:09.119Z,100915.09
2023-09-23T09:20:38.758Z,100915.19
2023-09-23T09:23:08.475Z,100909.09
2023-09-23T09:25:37.407Z,100900.78
2023-09-23T09:28:07.937Z,100901.28
2023-09-23T09:30:36.978Z,100903.38
2023-09-23T09:33:11.448Z,100903.25
2023-09-23T09:35:42.744Z,100902.16
2023-09-23T09:38:18.448Z,100911.66
2023-09-23T09:40:48.792Z,100905.41
2023-09-23T09:43:22.043Z,100903.59
2023-09-23T09:45:52.257Z,100904.66
2023-09-23T09:48:21.707Z,100904.50
2023-09-23T09:50:51.994Z,100898.75
2023-09-23T09:53:21.959Z,100888.72
2023-09-23T09:55:51.087Z,100890.63
2023-09-23T09:58:24.951Z,100885.59
2023-09-23T10:00:53.753Z,100886.94
2023-09-23T10:03:29.532Z,100889.22
2023-09-23T10:06:03.409Z,100876.53
2023-09-23T10:08:39.659Z,100881.88
2023-09-23T10:11:11.173Z,100879.81
2023-09-23T10:13:41.888Z,100882.03
2023-09-23T10:16:14.725Z,100875.56
2023-09-23T10:18:43.581Z,100869.56
2023-09-23T10:21:25.209Z,100873.78
2023-09-23T10:23:54.839Z,100870.25
2023-09-23T10:26:25.015Z,100867.72
2023-09-23T10:29:07.068Z,100863.66
2023-09-23T10:31:36.860Z,100866.56
2023-09-23T10:34:07.993Z,100858.63
2023-09-23T10:36:38.339Z,100852.75
2023-09-23T10:39:08.166Z,100847.34
2023-09-23T10:41:37.580Z,100841.56
2023-09-23T10:44:09.501Z,100835.94
2023-09-23T10:46:39.397Z,100831.84
2023-09-23T10:49:08.722Z,100830.19
2023-09-23T10:51:37.451Z,100824.84
2023-09-23T10:54:06.275Z,100827.47
2023-09-23T10:56:35.328Z,100821.59
2023-09-23T10:59:05.769Z,100822.78
2023-09-23T11:01:36.452Z,100821.88
2023-09-23T11:04:08.114Z,100818.19
2023-09-23T11:06:36.868Z,100811.03
2023-09-23T11:09:05.716Z,100811.41
2023-09-23T11:11:38.198Z,100814.16
2023-09-23T11:14:14.718Z,100813.38
2023-09-23T11:16:49.063Z,100807.22
2023-09-23T11:19:19.184Z,100801.66
2023-09-23T11:21:49.192Z,100805.69
2023-09-23T11:24:17.947Z,100802.63
2023-09-23T11:26:47.835Z,100802.81
2023-09-23T11:29:16.655Z,100801.09
2023-09-23T11:31:47.143Z,100799.22
2023-09-23T11:34:16.065Z,100806.44
2023-09-23T11:36:45.014Z,100803.16
2023-09-23T11:39:14.157Z,100804.22
2023-09-23T11:41:42.711Z,100797.56
2023-09-23T11:44:11.387Z,100797.94
2023-09-23T11:46:40.083Z,100803.81
2023-09-23T11:49:10.209Z,100795.19
2023-09-23T11:51:39.389Z,100794.41
2023-09-23T11:54:09.344Z,100781.75
2023-09-23T11:56:38.131Z,100783.34
2023-09-23T11:59:08.668Z,100780.66
2023-09-23T12:01:38.161Z,100787.19
2023-09-23T12:04:07.210Z,100772.56
2023-09-23T12:06:38.177Z,100768.56
2023-09-23T12:09:10.626Z,100773.00
2023-09-23T12:11:39.961Z,100770.84
2023-09-23T12:14:11.245Z,100769.22
2023-09-23T12:16:39.957Z,100760.22
2023-09-23T12:19:08.310Z,100763.88
2023-09-23T12:21:38.544Z,100759.47
2023-09-23T12:24:08.127Z,100756.88
2023-09-23T12:26:37.044Z,100764.88
2023-09-23T12:29:05.602Z,100751.47
2023-09-23T12:31:34.345Z,100745.44
2023-09-23T12:34:02.866Z,100743.69
2023-09-23T12:36:31.465Z,100743.31
2023-09-23T12:39:02.483Z,100747.72
2023-09-23T12:41:31.204Z,100748.31
2023-09-23T12:43:59.743Z,100748.50
2023-09-23T12:46:28.542Z,100738.13
2023-09-23T12:48:57.292Z,100737.63
2023-09-23T12:51:26.006Z,100716.72
2023-09-23T12:53:54.506Z,100722.69
2023-09-23T12:56:24.779Z,100721.13
2023-09-23T12:58:53.259Z,100723.44
2023-09-23T13:01:22.562Z,100722.75
2023-09-23T13:03:52.162Z,100717.91
2023-09-23T13:06:21.155Z,100718.81
2023-09-23T13:08:49.669Z,100703.13
2023-09-23T13:11:18.247Z,100706.78
2023-09-23T13:13:51.459Z,100701.50
2023-09-23T13:16:20.465Z,100710.94
2023-09-23T13:18:49.081Z,100710.16
2023-09-23T13:21:18.043Z,100697.72
2023-09-23T13:23:46.610Z,100701.16
2023-09-23T13:26:15.405Z,100702.50
2023-09-23T13:28:43.950Z,100701.50
2023-09-23T13:31:13.873Z,100695.16
2023-09-23T13:33:42.556Z,100698.06
2023-09-23T13:36:11.638Z,100692.97
2023-09-23T13:38:39.993Z,100688.31
2023-09-23T13:41:08.907Z,100683.41
2023-09-23T13:43:37.498Z,100687.25
2023-09-23T13:46:05.956Z,100681.81
2023-09-23T13:48:36.246Z,100680.91
2023-09-23T13:51:08.119Z,100689.06
2023-09-23T13:53:36.843Z,100684.72
2023-09-23T13:56:06.102Z,100677.72
2023-09-23T13:58:34.736Z,100683.59
2023-09-23T14:01:03.167Z,100672.63
2023-09-23T14:03:31.830Z,100672.16
2023-09-23T14:06:01.984Z,100671.38
2023-09-23T14:08:30.516Z,100659.88
2023-09-23T14:10:59.020Z,100657.59
2023-09-23T14:13:27.378Z,100648.28
2023-09-23T14:15:56.252Z,100651.06
2023-09-23T14:18:24.861Z,100640.91
2023-09-23T14:20:53.696Z,100640.19
2023-09-23T14:23:23.782Z,100626.94
2023-09-23T14:25:52.421Z,100625.59
2023-09-23T14:28:21.119Z,100622.50
2023-09-23T14:30:49.691Z,100617.88
2023-09-23T14:33:18.380Z,100601.06
2023-09-23T14:35:47.014Z,100606.75
2023-09-23T14:38:15.674Z,100603.00
2023-09-23T14:40:45.512Z,100599.63
2023-09-23T14:43:14.511Z,100593.81
2023-09-23T14:45:42.901Z,100596.84
2023-09-23T14:48:11.801Z,100594.34
2023-09-23T14:50:40.740Z,100587.75
2023-09-23T14:53:09.713Z,100588.22
2023-09-23T14:55:38.459Z,100592.53
2023-09-23T14:58:08.617Z,100593.75
2023-09-23T15:00:37.319Z,100571.53
2023-09-23T15:03:07.112Z,100573.91
2023-09-23T15:05:36.523Z,100570.25
2023-09-23T15:08:05.445Z,100553.44
2023-09-23T15:10:34.049Z,100557.63
2023-09-23T15:13:02.931Z,100563.34
2023-09-23T15:15:33.109Z,100559.50
2023-09-23T15:18:01.675Z,100554.81
2023-09-23T15:20:30.447Z,100562.59
2023-09-23T15:22:59.140Z,100566.91
2023-09-23T15:25:27.662Z,100554.88
2023-09-23T15:27:56.093Z,100555.97
2023-09-23T15:30:24.576Z,100548.44
2023-09-23T15:32:54.572Z,100544.53
2023-09-23T15:35:25.197Z,100544.00
2023-09-23T15:37:53.516Z,100542.03
2023-09-23T15:40:21.784Z,100547.72
2023-09-23T15:42:50.454Z,100539.38
2023-09-23T15:45:19.297Z,100533.38
2023-09-23T15:47:47.634Z,100535.34
2023-09-23T15:50:17.630Z,100529.47
2023-09-23T15:52:46.543Z,100527.06
2023-09-23T15:55:16.938Z,100523.31
2023-09-23T15:57:45.557Z,100518.69
2023-09-23T16:00:16.165Z,100516.53
2023-09-23T16:02:44.683Z,100510.72
2023-09-23T16:05:14.969Z,100510.72
2023-09-23T16:07:45.667Z,100504.38
2023-09-23T16:10:14.203Z,100506.50
2023-09-23T16:12:42.549Z,100509.31
2023-09-23T16:15:11.303Z,100517.41
2023-09-23T16:17:39.939Z,100505.91
2023-09-23T16:20:10.232Z,100505.47
2023-09-23T16:22:39.214Z,100500.38
2023-09-23T16:25:10.403Z,100492.47
2023-09-23T16:27:42.132Z,100478.31
2023-09-23T16:30:11.929Z,100480.44
2023-09-23T16:32:41.010Z,100469.97
2023-09-23T16:35:12.280Z,100476.19
2023-09-23T16:37:42.102Z,100471.25
2023-09-23T16:40:15.148Z,100466.16
2023-09-23T16:42:43.897Z,100460.53
2023-09-23T16:45:12.641Z,100453.47
2023-09-23T16:47:41.397Z,100457.41
2023-09-23T16:50:10.871Z,100449.53
2023-09-23T16:52:39.515Z,100438.84
2023-09-23T16:55:09.899Z,100439.50
2023-09-23T16:57:39.855Z,100432.53
2023-09-23T17:00:10.373Z,100426.88
2023-09-23T17:02:38.847Z,100413.16
2023-09-23T17:05:08.323Z,100423.63
2023-09-23T17:07:36.773Z,100424.94
2023-09-23T17:10:06.188Z,100430.56
2023-09-23T17:12:35.407Z,100433.38
2023-09-23T17:15:06.560Z,100430.78
2023-09-23T17:17:35.019Z,100429.25
2023-09-23T17:20:03.978Z,100415.44
2023-09-23T17:22:32.723Z,100424.88
2023-09-23T17:25:01.399Z,100410.06
2023-09-23T17:27:29.741Z,100400.84
2023-09-23T17:29:58.629Z,100390.38
2023-09-23T17:32:29.769Z,100388.41
2023-09-23T17:34:58.920Z,100378.81
2023-09-23T17:37:27.452Z,100382.38
2023-09-23T17:39:56.690Z,100369.91
2023-09-23T17:42:27.032Z,100375.88
2023-09-23T17:44:55.594Z,100372.75
2023-09-23T17:47:24.233Z,100370.44
2023-09-23T17:49:54.582Z,100374.31
2023-09-23T17:52:23.129Z,100388.91
2023-09-23T17:54:51.831Z,100375.47
2023-09-23T17:57:20.628Z,100381.47
2023-09-23T17:59:49.508Z,100356.53
2023-09-23T18:02:18.281Z,100359.50
2023-09-23T18:04:46.823Z,100356.16
2023-09-23T18:07:17.134Z,100364.06
2023-09-23T18:09:45.473Z,100381.50
2023-09-23T18:12:14.229Z,100370.09
2023-09-23T18:14:42.822Z,100369.34
2023-09-23T18:17:11.919Z,100373.28
2023-09-23T18:19:40.529Z,100360.66
2023-09-23T18:22:09.290Z,100359.69
2023-09-23T18:24:39.397Z,100367.38
2023-09-23T18:27:07.879Z,100354.31
2023-09-23T18:29:36.521Z,100359.84
2023-09-23T18:32:06.761Z,100361.97
2023-09-23T18:34:35.444Z,100374.06
2023-09-23T18:37:04.351Z,100370.28
2023-09-23T18:39:32.676Z,100372.59
2023-09-23T18:42:03.060Z,100369.13
2023-09-23T18:44:31.601Z,100380.22
2023-09-23T18:47:00.001Z,100394.28
2023-09-23T18:49:28.734Z,100408.75
2023-09-23T18:51:59.535Z,100402.63
2023-09-23T18:54:28.131Z,100411.28
2023-09-23T18:56:56.816Z,100392.03
2023-09-23T18:59:26.757Z,100384.03
2023-09-23T19:01:56.573Z,100377.56
2023-09-23T19:04:25.616Z,100379.91
2023-09-23T19:06:54.902Z,100385.69
2023-09-23T19:09:23.476Z,100371.09
2023-09-23T19:11:52.158Z,100366.78
2023-09-23T19:14:21.917Z,100374.47
2023-09-23T19:16:55.028Z,100371.31
2023-09-23T19:19:24.682Z,100376.19
2023-09-23T19:21:53.314Z,100380.84
2023-09-23T19:24:22.957Z,100379.72
2023-09-23T19:26:57.104Z,100377.34
2023-09-23T19:29:26.231Z,100361.13
2023-09-23T19:32:00.244Z,100365.13
2023-09-23T19:34:28.969Z,100361.50
2023-09-23T19:36:58.836Z,100351.47
2023-09-23T19:39:29.863Z,100355.50
2023-09-23T19:41:59.022Z,100348.72
2023-09-23T19:44:28.189Z,100347.63
2023-09-23T19:46:58.743Z,100334.06
2023-09-23T19:49:27.349Z,100325.00
2023-09-23T19:51:56.687Z,100326.75
2023-09-23T19:54:26.750Z,100311.59
2023-09-23T19:56:55.166Z,100307.94
2023-09-23T19:59:23.715Z,100303.69
2023-09-23T20:01:52.302Z,100291.28
2023-09-23T20:04:22.646Z,100294.13
2023-09-23T20:06:50.995Z,100287.97
2023-09-23T20:09:19.460Z,100279.38
2023-09-23T20:11:48.581Z,100280.88
2023-09-23T20:14:19.031Z,100278.59
2023-09-23T20:16:48.763Z,100270.47
2023-09-23T20:19:17.309Z,100275.38
2023-09-23T20:21:47.988Z,100266.38
2023-09-23T20:24:16.741Z,100265.72
2023-09-23T20:26:45.302Z,100265.72
2023-09-23T20:29:14.980Z,100264.28
2023-09-23T20:31:44.660Z,100268.56
2023-09-23T20:34:13.339Z,100262.94
2023-09-23T20:36:42.505Z,100262.31
2023-09-23T20:39:12.670Z,100264.84
2023-09-23T20:41:41.847Z,100266.13
2023-09-23T20:44:15.388Z,100267.50
2023-09-23T20:46:45.654Z,100267.31
2023-09-23T20:49:15.490Z,100266.31
2023-09-23T20:51:44.265Z,100269.16
2023-09-23T20:54:14.886Z,100270.28
2023-09-23T20:56:44.441Z,100271.47
2023-09-23T20:59:15.616Z,100275.50
2023-09-23T21:01:53.308Z,100267.84
2023-09-23T21:04:22.018Z,100272.34
2023-09-23T21:06:52.619Z,100271.38
2023-09-23T21:09:22.794Z,100257.19
2023-09-23T21:11:51.472Z,100261.19
2023-09-23T21:14:31.237Z,100258.53
2023-09-23T21:16:59.696Z,100253.91
2023-09-23T21:19:36.270Z,100262.41
2023-09-23T21:22:11.230Z,100266.06
2023-09-23T21:24:42.650Z,100271.56
2023-09-23T21:27:14.215Z,100280.91
2023-09-23T21:29:53.249Z,100273.25
2023-09-23T21:32:33.941Z,100269.44
2023-09-23T21:35:05.148Z,100274.28
2023-09-23T21:37:50.468Z,100276.28
2023-09-23T21:40:27.795Z,100276.94
2023-09-23T21:43:00.988Z,100278.09
2023-09-23T21:45:32.579Z,100280.13
2023-09-23T21:48:02.777Z,100295.63
2023-09-23T21:50:32.615Z,100292.63
2023-09-23T21:53:11.979Z,100286.28
2023-09-23T21:55:42.026Z,100291.13
2023-09-23T21:58:25.729Z,100288.28
2023-09-23T22:01:12.784Z,100278.31
2023-09-23T22:03:47.711Z,100282.31
2023-09-23T22:06:18.658Z,100272.66
2023-09-23T22:08:55.657Z,100283.66
2023-09-23T22:11:27.789Z,100291.66
2023-09-23T22:14:04.201Z,100294.50
2023-09-23T22:16:34.834Z,100287.81
2023-09-23T22:19:06.056Z,100291.47
2023-09-23T22:21:41.784Z,100290.81
2023-09-23T22:24:12.591Z,100283.31
2023-09-23T22:26:44.702Z,100281.13
2023-09-23T22:29:22.490Z,100282.97
2023-09-23T22:31:53.916Z,100291.31
2023-09-23T22:34:22.623Z,100289.31
2023-09-23T22:36:58.122Z,100279.66
2023-09-23T22:39:27.314Z,100290.69
2023-09-23T22:41:57.674Z,100285.84
2023-09-23T22:44:27.352Z,100295.78
2023-09-23T22:46:56.984Z,100292.97
2023-09-23T22:49:29.487Z,100302.81
2023-09-23T22:51:57.933Z,100311.97
2023-09-23T22:54:27.553Z,100304.97
2023-09-23T22:57:14.497Z,100298.31
2023-09-23T22:59:43.027Z,100315.97
2023-09-23T23:02:14.046Z,100312.81
2023-09-23T23:04:44.624Z,100311.13
2023-09-23T23:07:13.483Z,100308.66
2023-09-23T23:09:44.269Z,100304.81
2023-09-23T23:12:20.673Z,100314.78
2023-09-23T23:14:53.639Z,100305.97
2023-09-23T23:17:31.209Z,100321.63
2023-09-23T23:20:11.268Z,100329.78
2023-09-23T23:22:46.683Z,100320.47
2023-09-23T23:25:19.906Z,100332.81
2023-09-23T23:27:55.681Z,100329.28
2023-09-23T23:30:25.612Z,100329.97
2023-09-23T23:32:55.291Z,100335.63
2023-09-23T23:35:28.370Z,100324.47
2023-09-23T23:38:04.209Z,100328.47
2023-09-23T23:40:43.791Z,100340.16
2023-09-23T23:43:20.995Z,100331.31
2023-09-23T23:46:07.923Z,100345.63
2023-09-23T23:48:44.645Z,100346.63
2023-09-23T23:51:19.229Z,100346.94
2023-09-23T23:53:50.184Z,100348.13
2023-09-23T23:56:19.925Z,100350.78
2023-09-23T23:59:01.268Z,100360.94
